createdAt,value
2022-08-10T00:00:53.500Z,25.70
2022-08-10T00:03:21.193Z,25.70
2022-08-10T00:05:53.231Z,25.60
2022-08-10T00:08:24.014Z,25.60
2022-08-10T00:10:52.572Z,25.60
2022-08-10T00:13:20.246Z,25.60
2022-08-10T00:15:53.684Z,25.70
2022-08-10T00:18:35.040Z,25.60
2022-08-10T00:21:04.651Z,25.60
2022-08-10T00:23:32.393Z,25.60
2022-08-10T00:26:00.169Z,25.60
2022-08-10T00:28:27.853Z,25.60
2022-08-10T00:30:56.052Z,25.60
2022-08-10T00:33:25.143Z,25.60
2022-08-10T00:35:52.832Z,25.60
2022-08-10T00:38:20.522Z,25.60
2022-08-10T00:40:48.244Z,25.60
2022-08-10T00:43:23.380Z,25.60
2022-08-10T00:45:59.859Z,25.60
2022-08-10T00:48:30.151Z,25.70
2022-08-10T00:50:58.520Z,25.60
2022-08-10T00:53:26.367Z,25.60
2022-08-10T00:57:12.892Z,25.60
2022-08-10T00:58:41.853Z,25.60
2022-08-10T01:01:22.606Z,25.60
2022-08-10T01:04:58.001Z,25.70
2022-08-10T01:06:48.978Z,25.60
2022-08-10T01:09:19.118Z,25.60
2022-08-10T01:12:38.385Z,25.60
2022-08-10T01:14:42.171Z,25.60
2022-08-10T01:17:12.368Z,25.60
2022-08-10T01:19:49.043Z,25.60
2022-08-10T01:22:46.105Z,25.60
2022-08-10T01:25:35.591Z,25.60
2022-08-10T01:28:31.556Z,25.60
2022-08-10T01:31:01.848Z,25.60
2022-08-10T01:33:58.403Z,25.60
2022-08-10T01:36:20.275Z,25.60
2022-08-10T01:38:59.888Z,25.60
2022-08-10T01:41:28.838Z,25.60
2022-08-10T01:44:12.980Z,25.60
2022-08-10T01:46:45.368Z,25.60
2022-08-10T01:49:12.707Z,25.60
2022-08-10T01:51:43.528Z,25.60
2022-08-10T01:54:13.382Z,25.60
2022-08-10T01:56:43.219Z,25.60
2022-08-10T01:59:14.939Z,25.60
2022-08-10T02:01:47.700Z,25.60
2022-08-10T02:04:16.232Z,25.60
2022-08-10T02:06:45.308Z,25.60
2022-08-10T02:09:15.200Z,25.60
2022-08-10T02:12:07.784Z,25.60
2022-08-10T02:14:34.669Z,25.60
2022-08-10T02:17:04.689Z,25.60
2022-08-10T02:19:32.393Z,25.60
2022-08-10T02:22:09.470Z,25.60
2022-08-10T02:24:47.730Z,25.60
2022-08-10T02:27:15.463Z,25.60
2022-08-10T02:29:43.215Z,25.60
2022-08-10T02:32:20.136Z,25.60
2022-08-10T02:35:05.156Z,25.60
2022-08-10T02:37:32.833Z,25.60
2022-08-10T02:40:01.198Z,25.60
2022-08-10T02:45:17.970Z,25.60
2022-08-10T02:45:31.700Z,25.60
2022-08-10T02:48:02.544Z,25.60
2022-08-10T02:50:30.998Z,25.60
2022-08-10T02:53:04.856Z,25.60
2022-08-10T02:55:34.832Z,25.60
2022-08-10T02:58:13.293Z,25.60
2022-08-10T03:00:47.560Z,25.60
2022-08-10T03:03:20.263Z,25.60
2022-08-10T03:05:49.818Z,25.60
2022-08-10T03:08:19.412Z,25.60
2022-08-10T03:10:47.112Z,25.60
2022-08-10T03:13:14.840Z,25.60
2022-08-10T03:15:42.569Z,25.50
2022-08-10T03:18:10.308Z,25.50
2022-08-10T03:20:40.589Z,25.50
2022-08-10T03:23:11.366Z,25.50
2022-08-10T03:25:39.126Z,25.50
2022-08-10T03:28:07.039Z,25.50
2022-08-10T03:30:34.982Z,25.50
2022-08-10T03:33:03.548Z,25.50
2022-08-10T03:35:31.250Z,25.50
2022-08-10T03:38:00.430Z,25.50
2022-08-10T03:40:34.402Z,25.50
2022-08-10T03:43:14.971Z,25.50
2022-08-10T03:45:55.136Z,25.50
2022-08-10T03:48:24.194Z,25.50
2022-08-10T03:50:52.857Z,25.50
2022-08-10T03:53:25.111Z,25.50
2022-08-10T03:56:29.909Z,25.50
2022-08-10T03:58:57.464Z,25.50
2022-08-10T04:02:46.666Z,25.50
2022-08-10T04:04:15.383Z,25.50
2022-08-10T04:06:45.612Z,25.50
2022-08-10T04:09:14.694Z,25.50
2022-08-10T04:11:42.419Z,25.50
2022-08-10T04:14:38.013Z,25.50
2022-08-10T04:16:57.813Z,25.50
2022-08-10T04:19:25.492Z,25.50
2022-08-10T04:22:08.675Z,25.50
2022-08-10T04:24:37.793Z,25.50
2022-08-10T04:27:05.507Z,25.50
2022-08-10T04:29:33.303Z,25.50
2022-08-10T04:32:01.081Z,25.50
2022-08-10T04:34:31.671Z,25.50
2022-08-10T04:37:00.150Z,25.50
2022-08-10T04:39:28.009Z,25.50
2022-08-10T04:41:57.111Z,25.50
2022-08-10T04:44:24.939Z,25.50
2022-08-10T04:46:57.739Z,25.50
2022-08-10T04:49:54.768Z,25.50
2022-08-10T04:52:14.640Z,25.50
2022-08-10T04:54:42.393Z,25.50
2022-08-10T04:57:11.421Z,25.50
2022-08-10T04:59:39.231Z,25.50
2022-08-10T05:02:22.145Z,25.50
2022-08-10T05:04:54.604Z,25.50
2022-08-10T05:07:22.324Z,25.50
2022-08-10T05:10:02.358Z,25.50
2022-08-10T05:12:35.850Z,25.50
2022-08-10T05:15:05.923Z,25.50
2022-08-10T05:17:34.162Z,25.50
2022-08-10T05:20:06.450Z,25.50
2022-08-10T05:22:39.226Z,25.50
2022-08-10T05:25:08.721Z,25.50
2022-08-10T05:27:37.857Z,25.50
2022-08-10T05:30:06.951Z,25.50
2022-08-10T05:32:59.157Z,25.50
2022-08-10T05:35:22.973Z,25.50
2022-08-10T05:38:11.657Z,25.50
2022-08-10T05:40:39.428Z,25.50
2022-08-10T05:43:08.563Z,25.50
2022-08-10T05:46:18.431Z,25.50
2022-08-10T05:48:57.297Z,25.50
2022-08-10T05:51:12.662Z,25.50
2022-08-10T05:54:00.854Z,25.50
2022-08-10T05:56:28.059Z,25.50
2022-08-10T06:00:30.986Z,25.50
2022-08-10T06:02:30.692Z,25.50
2022-08-10T06:04:53.212Z,25.50
2022-08-10T06:07:21.864Z,25.50
2022-08-10T06:09:58.695Z,25.50
2022-08-10T06:12:30.082Z,25.50
2022-08-10T06:15:10.279Z,25.40
2022-08-10T06:18:02.100Z,25.40
2022-08-10T06:20:35.401Z,25.50
2022-08-10T06:23:04.998Z,25.40
2022-08-10T06:26:11.934Z,25.50
2022-08-10T06:28:21.128Z,25.50
2022-08-10T06:30:50.276Z,25.50
2022-08-10T06:33:18.052Z,25.50
2022-08-10T06:35:45.747Z,25.50
2022-08-10T06:38:13.402Z,25.50
2022-08-10T06:40:41.882Z,25.50
2022-08-10T06:43:10.816Z,25.50
2022-08-10T06:45:42.221Z,25.50
2022-08-10T06:48:14.985Z,25.50
2022-08-10T06:50:58.802Z,25.50
2022-08-10T06:53:52.112Z,25.50
2022-08-10T06:56:20.678Z,25.50
2022-08-10T06:59:08.209Z,25.40
2022-08-10T07:01:51.270Z,25.40
2022-08-10T07:04:32.426Z,25.40
2022-08-10T07:07:02.227Z,25.50
2022-08-10T07:09:30.169Z,25.40
2022-08-10T07:11:57.988Z,25.40
2022-08-10T07:14:37.374Z,25.40
2022-08-10T07:17:05.454Z,25.40
2022-08-10T07:19:34.491Z,25.40
2022-08-10T07:23:01.374Z,25.50
2022-08-10T07:25:07.191Z,25.50
2022-08-10T07:27:58.214Z,25.50
2022-08-10T07:30:22.702Z,25.50
2022-08-10T07:32:51.969Z,25.50
2022-08-10T07:35:21.150Z,25.50
2022-08-10T07:37:49.428Z,25.50
2022-08-10T07:40:17.834Z,25.60
2022-08-10T07:42:46.444Z,25.60
2022-08-10T07:45:14.353Z,25.60
2022-08-10T07:47:53.721Z,25.60
2022-08-10T07:50:25.308Z,25.60
2022-08-10T07:52:53.179Z,25.60
2022-08-10T07:56:07.522Z,25.60
2022-08-10T07:58:08.698Z,25.60
2022-08-10T08:00:36.524Z,25.60
2022-08-10T08:03:07.143Z,25.70
2022-08-10T08:05:58.173Z,25.70
2022-08-10T08:08:23.909Z,25.70
2022-08-10T08:10:51.645Z,25.70
2022-08-10T08:13:19.380Z,25.70
2022-08-10T08:16:17.941Z,25.80
2022-08-10T08:18:36.924Z,25.80
2022-08-10T08:24:06.197Z,25.80
2022-08-10T08:24:07.807Z,25.80
2022-08-10T08:26:42.200Z,25.80
2022-08-10T08:29:13.864Z,25.80
2022-08-10T08:32:01.206Z,25.90
2022-08-10T08:34:29.182Z,25.90
2022-08-10T08:36:59.835Z,25.90
2022-08-10T08:39:27.796Z,25.90
2022-08-10T08:42:04.169Z,25.90
2022-08-10T08:44:35.901Z,25.90
2022-08-10T08:48:05.689Z,26.00
2022-08-10T08:50:26.209Z,26.00
2022-08-10T08:53:00.443Z,26.00
2022-08-10T08:55:56.071Z,26.00
2022-08-10T08:58:31.386Z,26.00
2022-08-10T09:01:03.138Z,26.00
2022-08-10T09:03:57.529Z,26.10
2022-08-10T09:06:38.480Z,26.10
2022-08-10T09:09:33.382Z,26.10
2022-08-10T09:12:09.240Z,26.10
2022-08-10T09:14:39.233Z,26.10
2022-08-10T09:17:12.913Z,26.10
2022-08-10T09:19:44.377Z,26.10
2022-08-10T09:22:18.417Z,26.10
2022-08-10T09:24:50.919Z,26.10
2022-08-10T09:27:20.541Z,26.10
2022-08-10T09:29:54.496Z,26.20
2022-08-10T09:36:16.930Z,26.20
2022-08-10T09:36:22.101Z,26.20
2022-08-10T09:38:13.056Z,26.30
2022-08-10T09:40:57.703Z,26.30
2022-08-10T09:43:36.187Z,26.30
2022-08-10T09:46:11.879Z,26.40
2022-08-10T09:48:44.370Z,26.30
2022-08-10T09:51:44.783Z,26.30
2022-08-10T09:54:18.797Z,26.40
2022-08-10T09:56:50.809Z,26.40
2022-08-10T09:59:56.660Z,26.40
2022-08-10T10:02:15.934Z,26.30
2022-08-10T10:04:46.808Z,26.30
2022-08-10T10:07:17.607Z,26.30
2022-08-10T10:09:49.086Z,26.40
2022-08-10T10:12:28.004Z,26.40
2022-08-10T10:15:24.877Z,26.40
2022-08-10T10:18:32.272Z,26.40
2022-08-10T10:21:03.143Z,26.50
2022-08-10T10:24:19.723Z,26.50
2022-08-10T10:26:42.544Z,26.50
2022-08-10T10:29:56.242Z,26.50
2022-08-10T10:32:09.792Z,26.50
2022-08-10T10:34:41.837Z,26.50
2022-08-10T10:37:09.524Z,26.50
2022-08-10T10:39:37.290Z,26.60
2022-08-10T10:42:34.946Z,26.60
2022-08-10T10:45:07.870Z,26.60
2022-08-10T10:47:46.452Z,26.60
2022-08-10T10:50:17.808Z,26.60
2022-08-10T10:52:50.463Z,26.60
2022-08-10T10:55:20.759Z,26.60
2022-08-10T10:57:59.342Z,26.70
2022-08-10T11:00:34.711Z,26.70
2022-08-10T11:03:24.230Z,26.80
2022-08-10T11:05:56.037Z,26.80
2022-08-10T11:08:28.682Z,26.80
2022-08-10T11:10:59.064Z,26.90
2022-08-10T11:14:25.776Z,26.90
2022-08-10T11:16:24.332Z,26.80
2022-08-10T11:18:58.847Z,26.90
2022-08-10T11:21:39.619Z,26.90
2022-08-10T11:24:44.356Z,26.90
2022-08-10T11:27:02.051Z,26.90
2022-08-10T11:29:33.268Z,27.00
2022-08-10T11:32:04.014Z,27.00
2022-08-10T11:34:48.751Z,27.00
2022-08-10T11:37:26.856Z,27.10
2022-08-10T11:40:00.909Z,27.00
2022-08-10T11:42:36.359Z,27.10
2022-08-10T11:45:06.552Z,27.00
2022-08-10T11:47:38.967Z,27.10
2022-08-10T11:50:12.665Z,27.10
2022-08-10T11:52:42.379Z,27.10
2022-08-10T11:55:13.799Z,27.20
2022-08-10T11:57:53.869Z,27.20
2022-08-10T12:00:22.199Z,27.20
2022-08-10T12:02:53.431Z,27.20
2022-08-10T12:05:46.798Z,27.20
2022-08-10T12:10:01.845Z,27.10
2022-08-10T12:10:59.151Z,27.20
2022-08-10T12:13:29.223Z,27.20
2022-08-10T12:16:05.391Z,27.10
2022-08-10T12:18:37.587Z,27.10
2022-08-10T12:21:09.076Z,27.10
2022-08-10T12:24:02.354Z,27.20
2022-08-10T12:26:36.037Z,27.20
2022-08-10T12:29:09.621Z,27.10
2022-08-10T12:31:41.237Z,27.10
2022-08-10T12:34:18.008Z,27.10
2022-08-10T12:36:48.045Z,27.20
2022-08-10T12:39:17.469Z,27.20
2022-08-10T12:41:49.172Z,27.10
2022-08-10T12:44:19.132Z,27.20
2022-08-10T12:46:51.284Z,27.20
2022-08-10T12:49:21.149Z,27.20
2022-08-10T12:51:51.224Z,27.20
2022-08-10T12:54:32.076Z,27.20
2022-08-10T12:57:01.286Z,27.20
2022-08-10T12:59:29.141Z,27.20
2022-08-10T13:02:09.474Z,27.40
2022-08-10T13:04:40.080Z,27.30
2022-08-10T13:07:07.901Z,27.30
2022-08-10T13:09:56.704Z,27.40
2022-08-10T13:12:35.974Z,27.40
2022-08-10T13:15:45.279Z,27.40
2022-08-10T13:18:00.560Z,27.50
2022-08-10T13:20:31.225Z,27.50
2022-08-10T13:22:59.956Z,27.40
2022-08-10T13:25:30.927Z,27.40
2022-08-10T13:28:35.580Z,27.50
2022-08-10T13:30:50.950Z,27.50
2022-08-10T13:34:03.780Z,27.60
2022-08-10T13:36:15.605Z,27.60
2022-08-10T13:38:45.440Z,27.50
2022-08-10T13:41:13.243Z,27.50
2022-08-10T13:43:50.927Z,27.60
2022-08-10T13:46:22.532Z,27.60
2022-08-10T13:48:51.503Z,27.60
2022-08-10T13:51:21.503Z,27.60
2022-08-10T13:54:09.307Z,27.60
2022-08-10T13:56:37.050Z,27.60
2022-08-10T13:59:09.744Z,27.60
2022-08-10T14:01:37.773Z,27.60
2022-08-10T14:04:06.708Z,27.70
2022-08-10T14:06:36.547Z,27.70
2022-08-10T14:09:07.041Z,27.70
2022-08-10T14:11:34.798Z,27.70
2022-08-10T14:14:03.854Z,27.60
2022-08-10T14:16:31.610Z,27.60
2022-08-10T14:19:00.820Z,27.60
2022-08-10T14:21:29.337Z,27.60
2022-08-10T14:23:58.536Z,27.60
2022-08-10T14:26:28.901Z,27.60
2022-08-10T14:28:58.166Z,27.60
2022-08-10T14:31:33.348Z,27.70
2022-08-10T14:34:01.170Z,27.70
2022-08-10T14:36:37.761Z,27.70
2022-08-10T14:39:06.872Z,27.60
2022-08-10T14:42:01.784Z,27.50
2022-08-10T14:44:24.193Z,27.30
2022-08-10T14:46:54.400Z,27.30
2022-08-10T14:49:25.461Z,27.20
2022-08-10T14:51:53.827Z,27.10
2022-08-10T14:54:29.477Z,27.10
2022-08-10T14:56:57.777Z,27.10
2022-08-10T14:59:45.928Z,27.10
2022-08-10T15:02:40.185Z,27.00
2022-08-10T15:05:09.097Z,27.00
2022-08-10T15:07:37.642Z,27.00
2022-08-10T15:10:08.308Z,27.00
2022-08-10T15:12:38.321Z,27.00
2022-08-10T15:15:08.268Z,27.00
2022-08-10T15:17:39.407Z,26.90
2022-08-10T15:20:14.557Z,26.90
2022-08-10T15:24:04.580Z,27.00
2022-08-10T15:26:26.488Z,27.00
2022-08-10T15:29:22.182Z,26.90
2022-08-10T15:32:00.096Z,26.90
2022-08-10T15:34:45.384Z,26.90
2022-08-10T15:37:40.588Z,26.80
2022-08-10T15:40:25.482Z,26.80
2022-08-10T15:42:58.270Z,26.80
2022-08-10T15:45:26.281Z,26.80
2022-08-10T15:48:01.870Z,26.80
2022-08-10T15:50:33.525Z,26.80
2022-08-10T15:53:02.949Z,26.70
2022-08-10T15:55:42.394Z,26.70
2022-08-10T15:58:16.716Z,26.70
2022-08-10T16:00:47.264Z,26.80
2022-08-10T16:03:17.083Z,26.80
2022-08-10T16:06:02.008Z,26.90
2022-08-10T16:08:37.325Z,26.90
2022-08-10T16:11:26.767Z,27.00
2022-08-10T16:14:11.812Z,27.00
2022-08-10T16:16:39.990Z,27.00
2022-08-10T16:19:22.144Z,27.00
2022-08-10T16:21:58.155Z,27.00
2022-08-10T16:24:26.419Z,27.10
2022-08-10T16:26:54.706Z,27.10
2022-08-10T16:29:25.115Z,27.10
2022-08-10T16:31:54.123Z,27.10
2022-08-10T16:34:22.438Z,27.10
2022-08-10T16:36:53.236Z,27.10
2022-08-10T16:39:57.578Z,27.10
2022-08-10T16:42:11.008Z,27.10
2022-08-10T16:44:41.531Z,27.10
2022-08-10T16:47:09.893Z,27.10
2022-08-10T16:49:39.200Z,27.10
2022-08-10T16:52:07.470Z,27.20
2022-08-10T16:54:36.084Z,27.20
2022-08-10T16:57:05.156Z,27.10
2022-08-10T16:59:35.081Z,27.20
2022-08-10T17:02:05.727Z,27.10
2022-08-10T17:04:33.980Z,27.20
2022-08-10T17:07:04.308Z,27.10
2022-08-10T17:09:33.388Z,27.20
2022-08-10T17:12:05.689Z,27.20
2022-08-10T17:14:33.858Z,27.10
2022-08-10T17:17:06.921Z,27.10
2022-08-10T17:19:37.357Z,27.00
2022-08-10T17:22:10.853Z,27.10
2022-08-10T17:24:41.787Z,27.10
2022-08-10T17:28:04.627Z,27.10
2022-08-10T17:30:04.250Z,27.10
2022-08-10T17:32:44.762Z,27.10
2022-08-10T17:35:14.235Z,27.00
2022-08-10T17:37:46.304Z,27.00
2022-08-10T17:40:16.241Z,27.00
2022-08-10T17:42:46.768Z,27.00
2022-08-10T17:45:20.868Z,27.00
2022-08-10T17:48:08.174Z,27.00
2022-08-10T17:50:36.857Z,27.00
2022-08-10T17:53:06.695Z,27.00
2022-08-10T17:55:35.413Z,27.00
2022-08-10T17:58:03.653Z,27.00
2022-08-10T18:00:31.977Z,27.00
2022-08-10T18:02:59.880Z,26.90
2022-08-10T18:05:30.720Z,27.00
2022-08-10T18:07:58.478Z,26.90
2022-08-10T18:10:26.531Z,27.00
2022-08-10T18:12:54.928Z,26.90
2022-08-10T18:15:23.733Z,26.90
2022-08-10T18:17:59.278Z,26.90
2022-08-10T18:20:33.357Z,26.90
2022-08-10T18:23:01.059Z,26.90
2022-08-10T18:25:31.940Z,26.90
2022-08-10T18:28:03.989Z,26.90
2022-08-10T18:30:36.544Z,26.90
2022-08-10T18:33:05.355Z,26.90
2022-08-10T18:35:34.949Z,26.90
2022-08-10T18:38:03.048Z,26.90
2022-08-10T18:40:36.239Z,26.90
2022-08-10T18:43:09.993Z,26.90
2022-08-10T18:45:53.050Z,26.80
2022-08-10T18:48:22.653Z,26.80
2022-08-10T18:50:52.808Z,26.80
2022-08-10T18:53:23.832Z,26.80
2022-08-10T18:56:09.614Z,26.80
2022-08-10T18:58:49.651Z,26.80
2022-08-10T19:01:42.340Z,26.80
2022-08-10T19:04:24.856Z,26.80
2022-08-10T19:07:31.505Z,26.80
2022-08-10T19:10:09.572Z,26.80
2022-08-10T19:12:42.908Z,26.80
2022-08-10T19:15:18.964Z,26.80
2022-08-10T19:18:05.887Z,26.70
2022-08-10T19:20:38.803Z,26.70
2022-08-10T19:23:15.233Z,26.70
2022-08-10T19:26:41.466Z,26.70
2022-08-10T19:28:39.543Z,26.70
2022-08-10T19:31:10.982Z,26.70
2022-08-10T19:33:46.341Z,26.70
2022-08-10T19:36:17.583Z,26.70
2022-08-10T19:38:50.308Z,26.70
2022-08-10T19:41:25.430Z,26.70
2022-08-10T19:44:04.536Z,26.80
2022-08-10T19:46:37.104Z,26.70
2022-08-10T19:49:09.173Z,26.80
2022-08-10T19:51:44.310Z,26.80
2022-08-10T19:54:16.985Z,26.80
2022-08-10T19:56:50.698Z,26.80
2022-08-10T20:00:17.012Z,26.90
2022-08-10T20:02:21.035Z,27.00
2022-08-10T20:04:57.309Z,27.00
2022-08-10T20:07:30.999Z,27.00
2022-08-10T20:10:00.796Z,27.10
2022-08-10T20:12:35.593Z,27.10
2022-08-10T20:15:05.030Z,27.20
2022-08-10T20:17:51.396Z,27.20
2022-08-10T20:20:27.806Z,27.20
2022-08-10T20:23:02.954Z,27.30
2022-08-10T20:25:31.160Z,27.30
2022-08-10T20:28:06.190Z,27.30
2022-08-10T20:30:35.359Z,27.40
2022-08-10T20:33:08.343Z,27.40
2022-08-10T20:35:47.165Z,27.40
2022-08-10T20:38:17.351Z,27.50
2022-08-10T20:40:47.121Z,27.50
2022-08-10T20:43:20.133Z,27.50
2022-08-10T20:46:08.000Z,27.50
2022-08-10T20:48:39.230Z,27.50
2022-08-10T20:51:09.311Z,27.60
2022-08-10T20:53:42.415Z,27.60
2022-08-10T20:56:15.643Z,27.60
2022-08-10T20:58:55.046Z,27.70
2022-08-10T21:02:06.484Z,27.70
2022-08-10T21:04:19.758Z,27.70
2022-08-10T21:07:07.307Z,27.80
2022-08-10T21:10:00.378Z,27.80
2022-08-10T21:12:48.792Z,27.80
2022-08-10T21:15:24.887Z,27.90
2022-08-10T21:18:01.163Z,27.90
2022-08-10T21:20:36.002Z,28.00
2022-08-10T21:23:05.855Z,28.10
2022-08-10T21:25:43.374Z,28.10
2022-08-10T21:28:29.127Z,28.10
2022-08-10T21:31:28.219Z,28.20
2022-08-10T21:34:05.925Z,28.20
2022-08-10T21:36:33.721Z,28.30
2022-08-10T21:39:06.832Z,28.20
2022-08-10T21:41:59.730Z,28.20
2022-08-10T21:45:04.305Z,28.20
2022-08-10T21:48:17.355Z,28.30
2022-08-10T21:51:08.801Z,28.40
2022-08-10T21:53:56.902Z,28.40
2022-08-10T21:56:45.888Z,28.50
2022-08-10T21:59:44.551Z,28.50
2022-08-10T22:02:34.823Z,28.60
2022-08-10T22:05:21.383Z,28.60
2022-08-10T22:08:08.116Z,28.70
2022-08-10T22:10:59.677Z,28.80
2022-08-10T22:13:45.187Z,28.90
2022-08-10T22:16:40.454Z,29.00
2022-08-10T22:19:26.003Z,29.00
2022-08-10T22:22:26.799Z,29.00
2022-08-10T22:25:22.717Z,29.10
2022-08-10T22:28:17.413Z,29.20
2022-08-10T22:31:29.985Z,29.20
2022-08-10T22:34:14.512Z,29.30
2022-08-10T22:37:20.000Z,29.40
2022-08-10T22:40:14.653Z,29.50
2022-08-10T22:43:09.903Z,29.50
2022-08-10T22:45:56.811Z,29.50
2022-08-10T22:48:42.168Z,29.60
2022-08-10T22:51:12.587Z,29.60
2022-08-10T22:54:01.812Z,29.70
2022-08-10T22:56:47.181Z,29.70
2022-08-10T22:59:26.976Z,29.80
2022-08-10T23:02:07.645Z,29.90
2022-08-10T23:04:42.767Z,29.90
2022-08-10T23:07:24.397Z,30.00
2022-08-10T23:10:02.448Z,30.10
2022-08-10T23:12:34.263Z,30.10
2022-08-10T23:15:19.923Z,30.20
2022-08-10T23:18:08.878Z,30.20
2022-08-10T23:20:37.400Z,30.20
2022-08-10T23:23:09.684Z,30.30
2022-08-10T23:25:56.176Z,30.30
2022-08-10T23:28:39.329Z,30.40
2022-08-10T23:31:12.877Z,30.40
2022-08-10T23:33:40.657Z,30.40
2022-08-10T23:36:34.464Z,30.50
2022-08-10T23:39:19.963Z,30.60
2022-08-10T23:41:46.729Z,30.60
2022-08-10T23:44:21.203Z,30.70
2022-08-10T23:46:49.020Z,30.70
2022-08-10T23:49:16.716Z,30.80
2022-08-10T23:51:55.636Z,30.80
2022-08-10T23:54:24.561Z,30.80
2022-08-10T23:56:55.279Z,30.90
2022-08-10T23:59:23.849Z,31.00
